Time;durP1;ratioP1;P1;durP2;ratioP2;P2;SDS_P1;SDS_P2;PMS_P1;PMS_P2;Temp;Humidity;BMP_temperature;BMP_pressure;BME280_temperature;BME280_humidity;BME280_pressure;Samples;Min_cycle;Max_cycle;Signal;HPM_P1;HPM_P2
2023/06/29 00:02:10;;;;;;;18.67;9.48;;;;;;;;;;4992117;28;20053;-67
2023/06/29 00:04:35;;;;;;;17.90;10.80;;;;;;;;;;4994332;28;20026;-67
2023/06/29 00:07:02;;;;;;;19.75;10.35;;;;;;;;;;4993412;28;20034;-67
2023/06/29 00:09:28;;;;;;;21.27;9.68;;;;;;;;;;4994281;28;20101;-67
2023/06/29 00:11:54;;;;;;;21.45;10.38;;;;;;;;;;4994942;28;20644;-67
2023/06/29 00:14:19;;;;;;;18.17;10.82;;;;;;;;;;4993231;28;20109;-67
2023/06/29 00:16:44;;;;;;;18.05;10.30;;;;;;;;;;4992301;28;20070;-67
2023/06/29 00:19:11;;;;;;;18.10;10.75;;;;;;;;;;4994177;28;20022;-67
2023/06/29 00:21:37;;;;;;;17.77;10.38;;;;;;;;;;4991824;28;20034;-67
2023/06/29 00:24:02;;;;;;;18.70;10.88;;;;;;;;;;4993751;28;20038;-68
2023/06/29 00:26:28;;;;;;;19.83;11.38;;;;;;;;;;4993505;28;20033;-67
2023/06/29 00:28:54;;;;;;;21.10;11.50;;;;;;;;;;4994772;28;20454;-67
2023/06/29 00:31:22;;;;;;;20.42;10.77;;;;;;;;;;4991946;28;20113;-67
2023/06/29 00:33:47;;;;;;;20.05;10.48;;;;;;;;;;4993565;28;20489;-67
2023/06/29 00:36:12;;;;;;;19.38;10.30;;;;;;;;;;4993036;28;20105;-67
2023/06/29 00:38:38;;;;;;;19.60;11.02;;;;;;;;;;4992757;28;20020;-67
2023/06/29 00:41:03;;;;;;;21.05;10.55;;;;;;;;;;4991633;28;20375;-67
2023/06/29 00:43:28;;;;;;;30.02;11.23;;;;;;;;;;4993477;28;20038;-67
2023/06/29 00:45:54;;;;;;;20.92;11.23;;;;;;;;;;4992346;28;20033;-67
2023/06/29 00:48:19;;;;;;;21.08;10.65;;;;;;;;;;4994051;28;20018;-67
2023/06/29 00:50:44;;;;;;;21.48;10.40;;;;;;;;;;4992680;28;20027;-67
2023/06/29 00:53:10;;;;;;;21.95;10.60;;;;;;;;;;4993923;28;20370;-67
2023/06/29 00:55:36;;;;;;;18.08;10.77;;;;;;;;;;4992280;28;20030;-67
2023/06/29 00:58:01;;;;;;;19.77;10.65;;;;;;;;;;4990350;28;20020;-67
2023/06/29 01:03:30;;;;;;;18.33;10.80;;;;;;;;;;5000805;23;20069;-66
2023/06/29 01:05:57;;;;;;;20.38;11.38;;;;;;;;;;4965979;28;20067;-66
2023/06/29 01:08:24;;;;;;;22.75;12.02;;;;;;;;;;4957690;28;20476;-66
2023/06/29 01:10:50;;;;;;;24.77;11.55;;;;;;;;;;4969981;28;20041;-66
2023/06/29 01:13:16;;;;;;;20.75;11.60;;;;;;;;;;4970683;28;20020;-66
2023/06/29 01:15:42;;;;;;;24.20;11.63;;;;;;;;;;4960174;28;20107;-66
2023/06/29 01:18:07;;;;;;;27.65;12.75;;;;;;;;;;4965880;28;20768;-66
2023/06/29 01:20:33;;;;;;;24.50;12.23;;;;;;;;;;4960294;28;20027;-66
2023/06/29 01:23:10;;;;;;;26.13;12.45;;;;;;;;;;4965027;28;20024;-66
2023/06/29 01:25:36;;;;;;;23.00;12.98;;;;;;;;;;4966044;28;20081;-66
2023/06/29 01:28:08;;;;;;;25.10;12.75;;;;;;;;;;4969708;28;20379;-66
2023/06/29 01:30:33;;;;;;;23.52;13.15;;;;;;;;;;4964347;28;20106;-66
2023/06/29 01:32:58;;;;;;;22.30;12.27;;;;;;;;;;4967964;28;20117;-66
2023/06/29 01:35:24;;;;;;;25.45;13.48;;;;;;;;;;4956477;28;20109;-66
2023/06/29 01:37:54;;;;;;;28.50;14.05;;;;;;;;;;4963191;28;20034;-66
2023/06/29 01:40:21;;;;;;;24.83;13.10;;;;;;;;;;4971931;28;20069;-66
2023/06/29 01:42:47;;;;;;;27.55;14.52;;;;;;;;;;4957752;28;20283;-66
2023/06/29 01:45:12;;;;;;;25.60;13.75;;;;;;;;;;4968852;28;20534;-66
2023/06/29 01:47:38;;;;;;;25.40;14.23;;;;;;;;;;4961827;28;20376;-66
2023/06/29 01:50:04;;;;;;;23.92;13.23;;;;;;;;;;4968942;28;20391;-66
2023/06/29 01:52:29;;;;;;;22.63;13.27;;;;;;;;;;4963502;28;20043;-66
2023/06/29 01:54:55;;;;;;;27.45;13.13;;;;;;;;;;4960373;28;20034;-66
2023/06/29 01:57:20;;;;;;;24.10;13.27;;;;;;;;;;4968619;28;20027;-66
2023/06/29 01:59:46;;;;;;;26.27;14.18;;;;;;;;;;4959576;28;20023;-65
2023/06/29 02:02:11;;;;;;;27.45;13.73;;;;;;;;;;4964492;28;20031;-66
2023/06/29 02:04:36;;;;;;;25.67;13.50;;;;;;;;;;4952444;28;20047;-66
2023/06/29 02:07:02;;;;;;;29.83;14.73;;;;;;;;;;4943718;28;20111;-66
2023/06/29 02:09:27;;;;;;;28.35;14.10;;;;;;;;;;4952360;28;20143;-66
2023/06/29 02:11:53;;;;;;;28.25;14.48;;;;;;;;;;4951506;28;20039;-66
2023/06/29 02:14:18;;;;;;;27.63;14.70;;;;;;;;;;4951048;28;20476;-66
2023/06/29 02:16:45;;;;;;;27.15;14.07;;;;;;;;;;4946938;28;20027;-66
2023/06/29 02:19:10;;;;;;;27.63;14.25;;;;;;;;;;4948730;28;20037;-66
2023/06/29 02:21:35;;;;;;;28.70;14.38;;;;;;;;;;4949441;28;20028;-66
2023/06/29 02:24:01;;;;;;;27.10;14.43;;;;;;;;;;4944923;28;20051;-66
2023/06/29 02:26:26;;;;;;;26.38;14.20;;;;;;;;;;4954859;28;20023;-66
2023/06/29 02:28:52;;;;;;;26.90;14.60;;;;;;;;;;4937424;28;20090;-66
2023/06/29 02:31:17;;;;;;;27.17;13.85;;;;;;;;;;4954588;28;20038;-66
2023/06/29 02:33:44;;;;;;;28.85;15.23;;;;;;;;;;4946390;28;20019;-66
2023/06/29 02:36:09;;;;;;;29.08;14.80;;;;;;;;;;4950672;28;20031;-72
2023/06/29 02:38:34;;;;;;;28.60;14.93;;;;;;;;;;4940285;28;20147;-73
2023/06/29 02:41:00;;;;;;;23.92;13.85;;;;;;;;;;4953529;28;20090;-73
2023/06/29 02:43:25;;;;;;;26.58;14.30;;;;;;;;;;4946909;28;20111;-72
2023/06/29 02:45:50;;;;;;;30.00;15.98;;;;;;;;;;4950625;28;20082;-73
2023/06/29 02:48:15;;;;;;;29.45;15.40;;;;;;;;;;4954120;28;20031;-72
2023/06/29 02:50:41;;;;;;;32.00;15.77;;;;;;;;;;4946353;28;20038;-72
2023/06/29 02:53:06;;;;;;;30.10;14.68;;;;;;;;;;4944478;28;20028;-73
2023/06/29 02:55:31;;;;;;;28.17;15.00;;;;;;;;;;4952994;28;20425;-72
2023/06/29 02:57:57;;;;;;;26.77;14.63;;;;;;;;;;4941550;28;20030;-72
2023/06/29 03:00:22;;;;;;;27.50;15.27;;;;;;;;;;4951949;28;20019;-72
2023/06/29 03:02:48;;;;;;;28.25;15.18;;;;;;;;;;4944344;28;20486;-73
2023/06/29 03:05:13;;;;;;;26.38;15.20;;;;;;;;;;4936503;29;20060;-72
2023/06/29 03:07:38;;;;;;;31.40;15.23;;;;;;;;;;4945349;28;20045;-73
2023/06/29 03:10:04;;;;;;;29.30;14.68;;;;;;;;;;4953222;28;20028;-72
2023/06/29 03:12:29;;;;;;;30.90;15.40;;;;;;;;;;4948540;28;20435;-72
2023/06/29 03:14:54;;;;;;;28.25;15.10;;;;;;;;;;4940082;28;20023;-72
2023/06/29 03:17:20;;;;;;;28.88;15.00;;;;;;;;;;4944324;28;20027;-73
2023/06/29 03:19:45;;;;;;;31.20;15.27;;;;;;;;;;4952466;28;20262;-72
2023/06/29 03:22:10;;;;;;;28.73;15.57;;;;;;;;;;4947639;28;20717;-72
2023/06/29 03:24:36;;;;;;;27.63;14.38;;;;;;;;;;4939316;29;20090;-73
2023/06/29 03:27:01;;;;;;;25.63;15.18;;;;;;;;;;4942580;29;20178;-72
2023/06/29 03:29:26;;;;;;;27.98;15.10;;;;;;;;;;4950530;28;20102;-72
2023/06/29 03:31:52;;;;;;;24.65;15.43;;;;;;;;;;4951411;28;20047;-72
2023/06/29 03:34:17;;;;;;;28.17;15.30;;;;;;;;;;4950049;28;20031;-73
2023/06/29 03:36:42;;;;;;;28.08;15.23;;;;;;;;;;4950994;28;20426;-73
2023/06/29 03:39:08;;;;;;;28.55;15.15;;;;;;;;;;4943843;28;20121;-73
2023/06/29 03:41:33;;;;;;;26.75;14.70;;;;;;;;;;4941809;29;20521;-73
2023/06/29 03:43:58;;;;;;;27.13;15.35;;;;;;;;;;4947522;28;20055;-73
2023/06/29 03:46:24;;;;;;;24.65;13.75;;;;;;;;;;4951401;28;20041;-73
2023/06/29 03:48:49;;;;;;;26.35;14.65;;;;;;;;;;4948832;28;20480;-73
2023/06/29 03:51:14;;;;;;;24.80;15.15;;;;;;;;;;4948334;28;20484;-73
2023/06/29 03:53:40;;;;;;;25.67;14.57;;;;;;;;;;4953549;28;20029;-73
2023/06/29 03:56:05;;;;;;;27.83;14.07;;;;;;;;;;4946190;28;20030;-72
2023/06/29 03:58:30;;;;;;;23.60;14.88;;;;;;;;;;4952284;28;20403;-72
2023/06/29 04:00:55;;;;;;;25.48;13.70;;;;;;;;;;4941706;28;20030;-73
2023/06/29 04:03:21;;;;;;;25.42;13.90;;;;;;;;;;4954064;28;20023;-73
2023/06/29 04:05:46;;;;;;;30.73;13.77;;;;;;;;;;4952648;28;20034;-72
2023/06/29 04:08:12;;;;;;;22.05;13.75;;;;;;;;;;4949591;28;20038;-73
2023/06/29 04:10:37;;;;;;;22.40;13.15;;;;;;;;;;4942457;29;20540;-73
2023/06/29 04:13:02;;;;;;;23.85;13.40;;;;;;;;;;4947799;28;20035;-73
2023/06/29 04:15:27;;;;;;;23.77;12.55;;;;;;;;;;4946775;28;20034;-73
2023/06/29 04:17:53;;;;;;;25.67;13.38;;;;;;;;;;4949379;28;20488;-73
2023/06/29 04:20:18;;;;;;;26.35;13.07;;;;;;;;;;4952170;28;20022;-73
2023/06/29 04:22:44;;;;;;;25.77;13.75;;;;;;;;;;4946810;28;20023;-72
2023/06/29 04:25:09;;;;;;;22.77;12.77;;;;;;;;;;4949447;28;20075;-73
2023/06/29 04:27:35;;;;;;;22.60;12.80;;;;;;;;;;4945910;28;20034;-74
2023/06/29 04:30:00;;;;;;;24.83;12.25;;;;;;;;;;4951893;28;20023;-72
2023/06/29 04:32:26;;;;;;;26.20;13.15;;;;;;;;;;4956998;28;20033;-73
2023/06/29 04:34:51;;;;;;;24.75;12.70;;;;;;;;;;4944694;28;20375;-73
2023/06/29 04:37:25;;;;;;;22.50;12.25;;;;;;;;;;4948073;28;20102;-73
2023/06/29 04:39:51;;;;;;;20.70;12.63;;;;;;;;;;4945708;28;20487;-73
2023/06/29 04:42:17;;;;;;;21.80;12.75;;;;;;;;;;4945338;28;20048;-73
2023/06/29 04:44:44;;;;;;;27.05;12.18;;;;;;;;;;4953269;28;20051;-73
2023/06/29 04:47:10;;;;;;;20.63;12.43;;;;;;;;;;4946886;28;20043;-73
2023/06/29 04:49:40;;;;;;;23.63;12.88;;;;;;;;;;4944528;28;20029;-73
2023/06/29 04:52:06;;;;;;;19.92;12.32;;;;;;;;;;4954030;28;20087;-72
2023/06/29 04:54:31;;;;;;;20.70;12.45;;;;;;;;;;4949196;28;20413;-72
2023/06/29 04:56:57;;;;;;;25.80;12.88;;;;;;;;;;4953717;28;20027;-72
2023/06/29 04:59:23;;;;;;;21.55;12.10;;;;;;;;;;4952737;28;20020;-73
2023/06/29 05:01:48;;;;;;;24.48;12.30;;;;;;;;;;4947438;28;20070;-73
2023/06/29 05:04:14;;;;;;;25.02;12.55;;;;;;;;;;4958186;28;20044;-73
2023/06/29 05:06:39;;;;;;;21.88;12.48;;;;;;;;;;4951787;28;20458;-72
2023/06/29 05:09:04;;;;;;;21.98;13.50;;;;;;;;;;4950614;28;20023;-72
2023/06/29 05:11:30;;;;;;;22.77;13.18;;;;;;;;;;4951931;28;20023;-72
2023/06/29 05:13:55;;;;;;;24.85;13.20;;;;;;;;;;4953058;28;20025;-72
2023/06/29 05:16:20;;;;;;;20.52;13.05;;;;;;;;;;4949323;28;20074;-72
2023/06/29 05:18:46;;;;;;;20.60;13.15;;;;;;;;;;4939705;29;20103;-72
2023/06/29 05:21:12;;;;;;;25.23;13.73;;;;;;;;;;4936421;29;20098;-72
2023/06/29 05:23:37;;;;;;;21.25;13.32;;;;;;;;;;4936516;29;20070;-72
2023/06/29 05:26:02;;;;;;;26.10;12.90;;;;;;;;;;4943561;29;20032;-72
2023/06/29 05:28:27;;;;;;;26.17;13.32;;;;;;;;;;4950173;28;20158;-72
2023/06/29 05:30:53;;;;;;;22.65;12.55;;;;;;;;;;4950047;28;20055;-72
2023/06/29 05:33:18;;;;;;;22.60;12.95;;;;;;;;;;4945448;29;20458;-72
2023/06/29 05:35:44;;;;;;;26.55;13.40;;;;;;;;;;4936182;28;20023;-72
2023/06/29 05:38:09;;;;;;;28.02;12.73;;;;;;;;;;4937316;29;20070;-71
2023/06/29 05:40:34;;;;;;;21.40;12.18;;;;;;;;;;4948431;28;20050;-72
2023/06/29 05:42:59;;;;;;;23.77;12.50;;;;;;;;;;4938857;29;20032;-72
2023/06/29 05:45:25;;;;;;;25.58;13.15;;;;;;;;;;4942228;29;20035;-72
2023/06/29 05:47:50;;;;;;;22.27;12.48;;;;;;;;;;4955841;28;20015;-72
2023/06/29 05:50:16;;;;;;;19.42;12.10;;;;;;;;;;4954600;28;20436;-72
2023/06/29 05:52:41;;;;;;;22.48;12.57;;;;;;;;;;4954470;28;20029;-72
2023/06/29 05:55:07;;;;;;;21.20;12.48;;;;;;;;;;4952223;28;20421;-72
2023/06/29 05:57:32;;;;;;;21.35;12.43;;;;;;;;;;4945701;28;20130;-72
2023/06/29 05:59:57;;;;;;;20.35;12.38;;;;;;;;;;4950605;28;20094;-72
2023/06/29 06:02:23;;;;;;;28.33;13.00;;;;;;;;;;4946078;28;20019;-72
2023/06/29 06:04:49;;;;;;;21.45;12.50;;;;;;;;;;4953644;28;20167;-72
2023/06/29 06:07:15;;;;;;;21.38;13.07;;;;;;;;;;4945107;29;20079;-73
2023/06/29 06:09:40;;;;;;;26.73;13.70;;;;;;;;;;4947637;29;20062;-72
2023/06/29 06:12:06;;;;;;;22.13;11.88;;;;;;;;;;4950644;28;20058;-72
2023/06/29 06:14:31;;;;;;;22.52;12.85;;;;;;;;;;4949246;28;20530;-72
2023/06/29 06:16:56;;;;;;;22.77;13.25;;;;;;;;;;4950632;29;20034;-72
2023/06/29 06:19:22;;;;;;;26.27;13.38;;;;;;;;;;4952552;28;20404;-72
2023/06/29 06:21:47;;;;;;;22.92;12.40;;;;;;;;;;4954382;28;20026;-72
2023/06/29 06:24:12;;;;;;;22.10;12.70;;;;;;;;;;4955546;28;20028;-72
2023/06/29 06:26:38;;;;;;;25.05;11.48;;;;;;;;;;4953205;28;20026;-72
2023/06/29 06:29:03;;;;;;;19.15;11.13;;;;;;;;;;4951294;28;20082;-72
2023/06/29 06:31:28;;;;;;;24.45;12.50;;;;;;;;;;4955040;28;20023;-72
2023/06/29 06:33:57;;;;;;;19.83;11.45;;;;;;;;;;4953883;28;20056;-67
2023/06/29 06:36:22;;;;;;;21.33;11.70;;;;;;;;;;4958755;28;20050;-67
2023/06/29 06:38:48;;;;;;;23.25;11.07;;;;;;;;;;4953270;28;20015;-67
2023/06/29 06:41:13;;;;;;;18.23;10.68;;;;;;;;;;4954217;28;20030;-67
2023/06/29 06:43:38;;;;;;;19.15;10.40;;;;;;;;;;4954917;28;20016;-67
2023/06/29 06:46:04;;;;;;;20.38;10.32;;;;;;;;;;4954189;28;20031;-67
2023/06/29 06:48:29;;;;;;;20.95;10.63;;;;;;;;;;4953907;28;20499;-65
2023/06/29 06:50:54;;;;;;;18.50;10.25;;;;;;;;;;4953811;28;20031;-65
2023/06/29 06:53:19;;;;;;;19.33;10.48;;;;;;;;;;4954949;28;20031;-65
2023/06/29 06:55:45;;;;;;;18.83;10.15;;;;;;;;;;4955814;28;20019;-64
2023/06/29 06:58:10;;;;;;;17.05;9.82;;;;;;;;;;4952245;28;20019;-64
2023/06/29 07:00:35;;;;;;;16.83;9.38;;;;;;;;;;4953241;28;20047;-66
2023/06/29 07:03:00;;;;;;;21.13;10.95;;;;;;;;;;4954076;28;20030;-67
2023/06/29 07:05:26;;;;;;;18.73;9.80;;;;;;;;;;4954127;28;20058;-66
2023/06/29 07:07:53;;;;;;;22.55;9.50;;;;;;;;;;4954037;28;20380;-67
2023/06/29 07:10:18;;;;;;;20.13;10.35;;;;;;;;;;4953764;28;20468;-65
2023/06/29 07:12:44;;;;;;;15.32;8.95;;;;;;;;;;4954618;28;20090;-65
2023/06/29 07:15:09;;;;;;;21.10;9.90;;;;;;;;;;4953947;28;20039;-64
2023/06/29 07:17:34;;;;;;;19.63;9.32;;;;;;;;;;4953546;28;20073;-64
2023/06/29 07:20:00;;;;;;;17.90;10.60;;;;;;;;;;4952472;28;20110;-64
2023/06/29 07:22:25;;;;;;;19.55;9.30;;;;;;;;;;4953070;28;20031;-66
2023/06/29 07:24:50;;;;;;;16.15;9.07;;;;;;;;;;4956896;28;20023;-67
2023/06/29 07:27:15;;;;;;;17.58;9.75;;;;;;;;;;4957975;28;20028;-67
2023/06/29 07:29:46;;;;;;;23.83;9.85;;;;;;;;;;4958513;28;20023;-67
2023/06/29 07:32:12;;;;;;;20.47;9.60;;;;;;;;;;4957388;28;20038;-70
2023/06/29 07:34:38;;;;;;;17.45;9.45;;;;;;;;;;4958378;28;20034;-70
2023/06/29 07:37:03;;;;;;;17.30;9.68;;;;;;;;;;4960297;28;20392;-70
2023/06/29 07:39:28;;;;;;;18.30;10.38;;;;;;;;;;4958332;28;20023;-70
2023/06/29 07:41:53;;;;;;;16.65;10.43;;;;;;;;;;4958253;28;20026;-70
2023/06/29 07:44:19;;;;;;;20.38;9.48;;;;;;;;;;4958087;28;20023;-70
2023/06/29 07:46:44;;;;;;;15.77;9.65;;;;;;;;;;4958187;28;20012;-65
2023/06/29 07:49:10;;;;;;;16.73;9.57;;;;;;;;;;4957468;28;20023;-67
2023/06/29 07:51:35;;;;;;;18.08;9.68;;;;;;;;;;4957132;29;20023;-65
2023/06/29 07:54:00;;;;;;;18.83;10.60;;;;;;;;;;4955614;28;20023;-66
2023/06/29 07:56:26;;;;;;;18.92;9.02;;;;;;;;;;4956952;28;20030;-65
2023/06/29 07:58:51;;;;;;;21.50;10.25;;;;;;;;;;4976966;28;20042;-65
2023/06/29 08:01:17;;;;;;;18.05;9.18;;;;;;;;;;4959719;28;20052;-65
2023/06/29 08:03:44;;;;;;;19.30;10.02;;;;;;;;;;4956304;28;20071;-65
2023/06/29 08:06:09;;;;;;;21.77;9.50;;;;;;;;;;4956444;28;20038;-71
2023/06/29 08:08:34;;;;;;;20.23;10.55;;;;;;;;;;4957138;28;20376;-71
2023/06/29 08:11:01;;;;;;;22.30;9.63;;;;;;;;;;4956808;28;20031;-71
2023/06/29 08:13:27;;;;;;;20.20;10.00;;;;;;;;;;4957439;28;20038;-71
2023/06/29 08:15:52;;;;;;;18.35;9.90;;;;;;;;;;4956238;28;20531;-71
2023/06/29 08:18:17;;;;;;;20.50;9.43;;;;;;;;;;4956461;28;20034;-71
2023/06/29 08:20:46;;;;;;;18.40;9.65;;;;;;;;;;4956343;28;20027;-71
2023/06/29 08:23:11;;;;;;;18.40;9.73;;;;;;;;;;4955152;28;20035;-71
2023/06/29 08:25:36;;;;;;;18.17;8.77;;;;;;;;;;4956718;28;20023;-72
2023/06/29 08:28:02;;;;;;;17.50;9.60;;;;;;;;;;4956847;28;20487;-71
2023/06/29 08:30:27;;;;;;;15.40;9.20;;;;;;;;;;4955769;28;20051;-71
2023/06/29 08:32:52;;;;;;;17.58;9.38;;;;;;;;;;4961422;28;20102;-71
2023/06/29 08:35:18;;;;;;;17.85;9.77;;;;;;;;;;4955435;28;20027;-71
2023/06/29 08:37:43;;;;;;;16.20;9.80;;;;;;;;;;4957665;28;20445;-71
2023/06/29 08:40:10;;;;;;;17.67;8.93;;;;;;;;;;4955373;29;20102;-71
2023/06/29 08:42:37;;;;;;;20.70;10.02;;;;;;;;;;4954707;28;20467;-71
2023/06/29 08:45:02;;;;;;;16.63;9.10;;;;;;;;;;4956227;28;20032;-71
2023/06/29 08:47:28;;;;;;;19.85;9.80;;;;;;;;;;4955827;28;20033;-71
2023/06/29 08:49:55;;;;;;;18.08;9.55;;;;;;;;;;4955709;28;20051;-71
2023/06/29 08:52:25;;;;;;;16.67;9.30;;;;;;;;;;4955548;28;20061;-71
2023/06/29 08:54:50;;;;;;;21.70;9.57;;;;;;;;;;4956499;28;20059;-72
2023/06/29 08:57:16;;;;;;;13.77;8.80;;;;;;;;;;4956013;28;20055;-72
2023/06/29 08:59:41;;;;;;;19.27;9.43;;;;;;;;;;4956877;28;20507;-73
2023/06/29 09:02:07;;;;;;;15.98;9.35;;;;;;;;;;4955791;28;20058;-72
2023/06/29 09:04:32;;;;;;;20.08;9.70;;;;;;;;;;4955443;28;20508;-73
2023/06/29 09:06:58;;;;;;;16.05;8.52;;;;;;;;;;4955857;28;20027;-73
2023/06/29 09:09:23;;;;;;;19.20;9.15;;;;;;;;;;4955735;28;20031;-72
2023/06/29 09:11:49;;;;;;;19.10;9.40;;;;;;;;;;4955962;28;20502;-72
2023/06/29 09:14:14;;;;;;;18.35;9.30;;;;;;;;;;4955554;28;20388;-72
2023/06/29 09:16:50;;;;;;;18.48;9.13;;;;;;;;;;4956020;28;20101;-73
2023/06/29 09:19:16;;;;;;;17.20;9.80;;;;;;;;;;4955338;28;20039;-72
2023/06/29 09:21:44;;;;;;;17.98;9.32;;;;;;;;;;4955164;28;20376;-72
2023/06/29 09:24:09;;;;;;;18.45;9.48;;;;;;;;;;4955900;29;20395;-72
2023/06/29 09:26:34;;;;;;;16.50;9.40;;;;;;;;;;4955217;28;20034;-72
2023/06/29 09:29:03;;;;;;;15.77;8.90;;;;;;;;;;4954735;28;20149;-72
2023/06/29 09:31:32;;;;;;;19.48;9.95;;;;;;;;;;4955213;28;20026;-71
2023/06/29 09:34:33;;;;;;;16.88;9.30;;;;;;;;;;4936923;29;20155;-72
2023/06/29 09:36:59;;;;;;;19.65;8.85;;;;;;;;;;4934710;29;20508;-72
2023/06/29 09:39:25;;;;;;;19.33;9.23;;;;;;;;;;4934476;29;20122;-72
2023/06/29 09:41:56;;;;;;;16.65;9.10;;;;;;;;;;4934626;29;20050;-72
2023/06/29 09:44:21;;;;;;;;;;;;;;;;;;4937195;29;20537;-72
2023/06/29 09:46:50;;;;;;;18.30;8.95;;;;;;;;;;4933842;29;19994;-72
2023/06/29 09:49:18;;;;;;;20.23;9.27;;;;;;;;;;4933724;29;20347;-72
2023/06/29 09:51:44;;;;;;;21.02;9.50;;;;;;;;;;4933052;29;20403;-72
2023/06/29 09:54:09;;;;;;;19.65;9.02;;;;;;;;;;4934431;29;20050;-72
2023/06/29 09:56:36;;;;;;;18.13;9.10;;;;;;;;;;4932376;29;20071;-72
2023/06/29 09:59:02;;;;;;;17.13;9.50;;;;;;;;;;4925453;29;20092;-72
2023/06/29 10:01:31;;;;;;;17.83;9.38;;;;;;;;;;4932888;29;20428;-72
2023/06/29 10:03:56;;;;;;;20.98;9.65;;;;;;;;;;4933054;29;20044;-72
2023/06/29 10:06:30;;;;;;;19.58;10.27;;;;;;;;;;4940518;29;20031;-67
2023/06/29 10:08:56;;;;;;;19.95;10.13;;;;;;;;;;4934224;29;20031;-67
2023/06/29 10:11:25;;;;;;;17.08;9.77;;;;;;;;;;4947735;29;20035;-67
2023/06/29 10:13:51;;;;;;;18.15;9.70;;;;;;;;;;4953959;28;20030;-66
2023/06/29 10:16:19;;;;;;;18.17;10.57;;;;;;;;;;4954856;28;20023;-72
2023/06/29 10:18:46;;;;;;;22.75;10.18;;;;;;;;;;4954665;28;20361;-72
2023/06/29 10:21:11;;;;;;;20.80;11.38;;;;;;;;;;4954072;28;20030;-72
2023/06/29 10:23:37;;;;;;;19.85;10.82;;;;;;;;;;4954842;28;20027;-73
2023/06/29 10:26:04;;;;;;;19.23;10.43;;;;;;;;;;4955137;28;20055;-72
2023/06/29 10:28:30;;;;;;;21.08;10.10;;;;;;;;;;4956917;28;20542;-73
2023/06/29 10:30:59;;;;;;;19.95;11.32;;;;;;;;;;4953610;28;20107;-72
2023/06/29 10:33:25;;;;;;;22.17;11.18;;;;;;;;;;4944000;28;20408;-72
2023/06/29 10:35:57;;;;;;;20.95;11.05;;;;;;;;;;4954645;28;20398;-72
2023/06/29 10:38:32;;;;;;;23.60;11.48;;;;;;;;;;4953479;28;20058;-72
2023/06/29 10:40:58;;;;;;;21.75;11.23;;;;;;;;;;4952245;28;20035;-72
2023/06/29 10:43:27;;;;;;;22.33;11.18;;;;;;;;;;4953846;28;20024;-72
2023/06/29 10:45:52;;;;;;;21.63;10.88;;;;;;;;;;4948810;28;20027;-72
2023/06/29 10:48:17;;;;;;;21.77;10.90;;;;;;;;;;4949624;29;20035;-72
2023/06/29 10:50:43;;;;;;;23.35;10.90;;;;;;;;;;4952754;28;20473;-72
2023/06/29 10:53:10;;;;;;;19.02;9.95;;;;;;;;;;4950624;28;20023;-73
2023/06/29 10:55:56;;;;;;;17.65;9.50;;;;;;;;;;4955090;28;20027;-73
2023/06/29 10:58:22;;;;;;;20.70;9.52;;;;;;;;;;4956465;28;20030;-73
2023/06/29 11:00:48;;;;;;;18.17;9.18;;;;;;;;;;4958975;28;20023;-73
2023/06/29 11:03:14;;;;;;;18.10;9.70;;;;;;;;;;4968197;28;20027;-72
2023/06/29 11:05:39;;;;;;;18.20;9.75;;;;;;;;;;4958014;29;20027;-73
2023/06/29 11:08:09;;;;;;;19.05;9.98;;;;;;;;;;4957744;28;20479;-73
2023/06/29 11:10:34;;;;;;;19.15;9.50;;;;;;;;;;4958516;28;20058;-73
2023/06/29 11:12:59;;;;;;;19.70;9.82;;;;;;;;;;4957884;28;20059;-73
2023/06/29 11:15:26;;;;;;;23.30;10.02;;;;;;;;;;4958341;28;20027;-73
2023/06/29 11:17:52;;;;;;;19.65;9.60;;;;;;;;;;4957302;28;20034;-72
2023/06/29 11:20:18;;;;;;;17.17;8.70;;;;;;;;;;4956953;28;20098;-73
2023/06/29 11:22:44;;;;;;;17.08;8.48;;;;;;;;;;4956305;28;20115;-73
2023/06/29 11:25:13;;;;;;;17.80;9.18;;;;;;;;;;4958230;28;20028;-73
2023/06/29 11:27:39;;;;;;;15.43;8.18;;;;;;;;;;4957139;28;20030;-73
2023/06/29 11:30:07;;;;;;;14.20;8.77;;;;;;;;;;4957424;28;20023;-73
2023/06/29 11:32:33;;;;;;;14.20;8.73;;;;;;;;;;4958015;28;20024;-73
2023/06/29 11:34:59;;;;;;;15.40;8.80;;;;;;;;;;4958283;28;20027;-73
2023/06/29 11:37:25;;;;;;;17.75;9.65;;;;;;;;;;4958350;28;20460;-72
2023/06/29 11:39:50;;;;;;;19.15;9.52;;;;;;;;;;4958201;28;20027;-72
2023/06/29 11:42:19;;;;;;;19.98;8.45;;;;;;;;;;4958232;28;20023;-72
2023/06/29 11:44:45;;;;;;;16.40;8.70;;;;;;;;;;4957763;28;20027;-72
2023/06/29 11:47:12;;;;;;;14.93;8.13;;;;;;;;;;4959398;28;20043;-73
2023/06/29 11:49:37;;;;;;;18.90;9.80;;;;;;;;;;4957991;28;20517;-73
2023/06/29 11:52:03;;;;;;;16.33;8.70;;;;;;;;;;4957360;28;20114;-72
2023/06/29 11:54:30;;;;;;;19.60;9.10;;;;;;;;;;4953879;28;20073;-72
2023/06/29 11:56:55;;;;;;;20.17;9.80;;;;;;;;;;4958404;28;20391;-72
2023/06/29 11:59:21;;;;;;;19.02;9.73;;;;;;;;;;4956454;28;20020;-72
2023/06/29 12:01:47;;;;;;;18.90;10.32;;;;;;;;;;4956308;28;20033;-72
2023/06/29 12:04:15;;;;;;;18.73;11.63;;;;;;;;;;4956793;28;20054;-72
2023/06/29 12:06:53;;;;;;;20.40;12.15;;;;;;;;;;4957806;28;20027;-72
2023/06/29 12:09:18;;;;;;;20.00;11.73;;;;;;;;;;4955830;28;20078;-72
2023/06/29 12:11:44;;;;;;;21.05;12.85;;;;;;;;;;4956795;28;20031;-72
2023/06/29 12:14:09;;;;;;;22.23;12.15;;;;;;;;;;4956926;28;20024;-70
2023/06/29 12:16:41;;;;;;;22.55;13.05;;;;;;;;;;4957576;28;20034;-70
2023/06/29 12:19:12;;;;;;;21.63;11.70;;;;;;;;;;4956518;28;20042;-70
2023/06/29 12:21:38;;;;;;;21.20;12.18;;;;;;;;;;4956378;28;20050;-70
2023/06/29 12:24:03;;;;;;;22.65;12.43;;;;;;;;;;4956341;28;20448;-70
2023/06/29 12:26:29;;;;;;;21.15;11.60;;;;;;;;;;4956745;28;20055;-70
2023/06/29 12:28:54;;;;;;;20.92;12.25;;;;;;;;;;4957674;28;20479;-70
2023/06/29 12:31:29;;;;;;;23.70;13.20;;;;;;;;;;4962768;28;20491;-72
2023/06/29 12:33:55;;;;;;;24.92;12.65;;;;;;;;;;4957377;28;20090;-71
2023/06/29 12:36:20;;;;;;;25.63;12.98;;;;;;;;;;4956303;28;20039;-71
2023/06/29 12:38:47;;;;;;;23.23;12.63;;;;;;;;;;4963448;28;20045;-71
2023/06/29 12:41:12;;;;;;;23.60;13.25;;;;;;;;;;4968553;28;20019;-71
2023/06/29 12:43:37;;;;;;;22.23;13.40;;;;;;;;;;4958116;28;20051;-72
2023/06/29 12:46:02;;;;;;;22.23;13.63;;;;;;;;;;4956484;28;20038;-72
2023/06/29 12:48:28;;;;;;;25.13;14.27;;;;;;;;;;4957001;28;20437;-71
2023/06/29 12:50:59;;;;;;;26.13;13.43;;;;;;;;;;4955784;28;20034;-72
2023/06/29 12:53:25;;;;;;;;;;;;;;;;;;4957378;28;20399;-71
2023/06/29 12:55:50;;;;;;;22.38;14.30;;;;;;;;;;4955513;28;19925;-71
2023/06/29 12:58:15;;;;;;;21.13;13.35;;;;;;;;;;4956876;28;20019;-71
2023/06/29 13:00:40;;;;;;;24.83;14.43;;;;;;;;;;4954411;28;20467;-71
2023/06/29 13:03:11;;;;;;;24.77;14.93;;;;;;;;;;4956408;28;20051;-70
2023/06/29 13:05:36;;;;;;;24.02;13.70;;;;;;;;;;4955689;28;20058;-70
2023/06/29 13:08:02;;;;;;;24.67;14.10;;;;;;;;;;4956249;28;20032;-70
2023/06/29 13:10:27;;;;;;;22.23;13.75;;;;;;;;;;4954878;28;20110;-70
2023/06/29 13:12:52;;;;;;;21.73;12.75;;;;;;;;;;4955466;29;20027;-70
2023/06/29 13:15:18;;;;;;;22.25;13.98;;;;;;;;;;4955488;28;20022;-70
2023/06/29 13:17:43;;;;;;;28.80;14.45;;;;;;;;;;4956445;28;20074;-70
2023/06/29 13:20:09;;;;;;;25.45;15.05;;;;;;;;;;4955670;28;20479;-70
2023/06/29 13:22:34;;;;;;;30.02;15.82;;;;;;;;;;4955869;28;20034;-70
2023/06/29 13:24:59;;;;;;;26.85;15.60;;;;;;;;;;4955260;28;20063;-70
2023/06/29 13:27:25;;;;;;;27.40;15.15;;;;;;;;;;4954955;28;20106;-70
2023/06/29 13:29:50;;;;;;;23.75;14.48;;;;;;;;;;4955674;28;20031;-70
2023/06/29 13:32:15;;;;;;;22.65;13.60;;;;;;;;;;4956231;28;20379;-69
2023/06/29 13:34:40;;;;;;;31.67;14.45;;;;;;;;;;4956049;28;20031;-69
2023/06/29 13:37:06;;;;;;;29.45;16.02;;;;;;;;;;4956203;28;20042;-69
2023/06/29 13:39:31;;;;;;;30.52;15.27;;;;;;;;;;4951373;28;20098;-69
2023/06/29 13:41:56;;;;;;;33.70;16.27;;;;;;;;;;4936703;29;20019;-69
2023/06/29 13:44:22;;;;;;;29.48;15.77;;;;;;;;;;4948852;28;20094;-69
2023/06/29 13:46:47;;;;;;;22.92;13.85;;;;;;;;;;4955064;28;20015;-69
2023/06/29 13:49:13;;;;;;;26.23;14.63;;;;;;;;;;4955646;28;20024;-69
2023/06/29 13:51:38;;;;;;;24.90;13.70;;;;;;;;;;4954789;28;20015;-69
2023/06/29 13:54:04;;;;;;;19.38;11.35;;;;;;;;;;4955686;28;20023;-69
2023/06/29 13:56:35;;;;;;;21.75;12.85;;;;;;;;;;4954904;28;20058;-70
2023/06/29 13:59:03;;;;;;;19.17;12.15;;;;;;;;;;4954485;28;20023;-70
2023/06/29 14:01:29;;;;;;;22.10;11.65;;;;;;;;;;4955382;28;20097;-70
2023/06/29 14:03:54;;;;;;;18.60;10.10;;;;;;;;;;4954354;28;20520;-70
2023/06/29 14:06:19;;;;;;;15.88;10.13;;;;;;;;;;4955809;28;20110;-70
2023/06/29 14:08:45;;;;;;;18.10;9.75;;;;;;;;;;4955320;28;20110;-70
2023/06/29 14:11:11;;;;;;;16.55;9.27;;;;;;;;;;4954232;29;20031;-70
2023/06/29 14:13:36;;;;;;;16.90;9.07;;;;;;;;;;4954614;28;20031;-70
2023/06/29 14:16:01;;;;;;;16.77;9.65;;;;;;;;;;4953558;28;20051;-70
2023/06/29 14:18:27;;;;;;;15.68;9.27;;;;;;;;;;4954573;28;20023;-70